sensor_id;sensor_type;location;lat;lon;timestamp;P1;durP1;ratioP1;P2;durP2;ratioP2
11431;SDS011;5772;50.940;6.782;2023-08-30T00:01:12;25.07;;;23.27;;
11431;SDS011;5772;50.940;6.782;2023-08-30T00:03:37;24.10;;;22.50;;
11431;SDS011;5772;50.940;6.782;2023-08-30T00:06:04;24.60;;;23.00;;
11431;SDS011;5772;50.940;6.782;2023-08-30T00:08:30;23.47;;;21.93;;
11431;SDS011;5772;50.940;6.782;2023-08-30T00:10:55;23.80;;;22.20;;
11431;SDS011;5772;50.940;6.782;2023-08-30T00:13:21;24.93;;;22.77;;
11431;SDS011;5772;50.940;6.782;2023-08-30T00:15:46;23.87;;;22.67;;
11431;SDS011;5772;50.940;6.782;2023-08-30T00:18:12;25.27;;;23.53;;
11431;SDS011;5772;50.940;6.782;2023-08-30T00:20:37;22.97;;;21.67;;
11431;SDS011;5772;50.940;6.782;2023-08-30T00:23:04;25.53;;;24.03;;
11431;SDS011;5772;50.940;6.782;2023-08-30T00:25:29;23.53;;;21.83;;
11431;SDS011;5772;50.940;6.782;2023-08-30T00:27:55;23.07;;;21.63;;
11431;SDS011;5772;50.940;6.782;2023-08-30T00:30:20;24.47;;;22.97;;
11431;SDS011;5772;50.940;6.782;2023-08-30T00:32:46;24.00;;;21.83;;
11431;SDS011;5772;50.940;6.782;2023-08-30T00:35:11;23.80;;;22.37;;
11431;SDS011;5772;50.940;6.782;2023-08-30T00:37:36;23.67;;;22.37;;
11431;SDS011;5772;50.940;6.782;2023-08-30T00:40:04;24.60;;;22.80;;
11431;SDS011;5772;50.940;6.782;2023-08-30T00:42:30;24.03;;;22.63;;
11431;SDS011;5772;50.940;6.782;2023-08-30T00:44:55;22.57;;;21.27;;
11431;SDS011;5772;50.940;6.782;2023-08-30T00:47:21;23.03;;;21.83;;
11431;SDS011;5772;50.940;6.782;2023-08-30T00:49:46;25.17;;;23.73;;
11431;SDS011;5772;50.940;6.782;2023-08-30T00:52:12;22.77;;;21.57;;
11431;SDS011;5772;50.940;6.782;2023-08-30T00:54:37;24.53;;;22.83;;
11431;SDS011;5772;50.940;6.782;2023-08-30T00:57:04;22.37;;;20.93;;
11431;SDS011;5772;50.940;6.782;2023-08-30T00:59:30;22.70;;;21.47;;
11431;SDS011;5772;50.940;6.782;2023-08-30T01:01:57;24.43;;;22.93;;
11431;SDS011;5772;50.940;6.782;2023-08-30T01:04:23;23.77;;;22.43;;
11431;SDS011;5772;50.940;6.782;2023-08-30T01:06:48;23.50;;;22.13;;
11431;SDS011;5772;50.940;6.782;2023-08-30T01:09:13;22.13;;;21.03;;
11431;SDS011;5772;50.940;6.782;2023-08-30T01:11:39;22.30;;;20.57;;
11431;SDS011;5772;50.940;6.782;2023-08-30T01:14:12;21.57;;;20.27;;
11431;SDS011;5772;50.940;6.782;2023-08-30T01:16:39;22.43;;;21.20;;
11431;SDS011;5772;50.940;6.782;2023-08-30T01:19:10;23.97;;;22.67;;
11431;SDS011;5772;50.940;6.782;2023-08-30T01:21:45;22.67;;;21.27;;
11431;SDS011;5772;50.940;6.782;2023-08-30T01:24:18;21.73;;;20.53;;
11431;SDS011;5772;50.940;6.782;2023-08-30T01:26:58;21.77;;;20.60;;
11431;SDS011;5772;50.940;6.782;2023-08-30T01:29:30;22.40;;;21.00;;
11431;SDS011;5772;50.940;6.782;2023-08-30T01:31:56;23.67;;;22.27;;
11431;SDS011;5772;50.940;6.782;2023-08-30T01:34:21;25.53;;;23.50;;
11431;SDS011;5772;50.940;6.782;2023-08-30T01:36:47;24.63;;;23.17;;
11431;SDS011;5772;50.940;6.782;2023-08-30T01:39:13;25.67;;;24.23;;
11431;SDS011;5772;50.940;6.782;2023-08-30T01:41:38;25.40;;;23.87;;
11431;SDS011;5772;50.940;6.782;2023-08-30T01:44:06;26.17;;;24.77;;
11431;SDS011;5772;50.940;6.782;2023-08-30T01:46:32;26.20;;;24.33;;
11431;SDS011;5772;50.940;6.782;2023-08-30T01:48:58;26.60;;;24.93;;
11431;SDS011;5772;50.940;6.782;2023-08-30T01:51:24;26.03;;;24.33;;
11431;SDS011;5772;50.940;6.782;2023-08-30T01:53:51;26.30;;;24.80;;
11431;SDS011;5772;50.940;6.782;2023-08-30T01:56:16;25.23;;;23.83;;
11431;SDS011;5772;50.940;6.782;2023-08-30T01:58:41;25.80;;;24.30;;
11431;SDS011;5772;50.940;6.782;2023-08-30T02:01:08;27.10;;;25.30;;
11431;SDS011;5772;50.940;6.782;2023-08-30T02:03:34;26.07;;;24.67;;
11431;SDS011;5772;50.940;6.782;2023-08-30T02:06:00;26.63;;;24.97;;
11431;SDS011;5772;50.940;6.782;2023-08-30T02:08:30;26.23;;;24.40;;
11431;SDS011;5772;50.940;6.782;2023-08-30T02:11:01;26.53;;;24.80;;
11431;SDS011;5772;50.940;6.782;2023-08-30T02:13:30;25.07;;;23.67;;
11431;SDS011;5772;50.940;6.782;2023-08-30T02:15:55;26.03;;;24.33;;
11431;SDS011;5772;50.940;6.782;2023-08-30T02:18:22;25.57;;;24.07;;
11431;SDS011;5772;50.940;6.782;2023-08-30T02:20:48;25.20;;;23.87;;
11431;SDS011;5772;50.940;6.782;2023-08-30T02:23:14;24.30;;;22.90;;
11431;SDS011;5772;50.940;6.782;2023-08-30T02:25:39;25.87;;;24.37;;
11431;SDS011;5772;50.940;6.782;2023-08-30T02:28:05;25.23;;;23.73;;
11431;SDS011;5772;50.940;6.782;2023-08-30T02:30:30;25.03;;;23.37;;
11431;SDS011;5772;50.940;6.782;2023-08-30T02:32:56;24.63;;;23.13;;
11431;SDS011;5772;50.940;6.782;2023-08-30T02:35:23;24.27;;;22.87;;
11431;SDS011;5772;50.940;6.782;2023-08-30T02:37:48;23.97;;;22.50;;
11431;SDS011;5772;50.940;6.782;2023-08-30T02:40:13;23.70;;;21.87;;
11431;SDS011;5772;50.940;6.782;2023-08-30T02:42:38;23.43;;;21.83;;
11431;SDS011;5772;50.940;6.782;2023-08-30T02:45:04;24.13;;;22.50;;
11431;SDS011;5772;50.940;6.782;2023-08-30T02:47:29;23.10;;;21.67;;
11431;SDS011;5772;50.940;6.782;2023-08-30T02:49:54;22.67;;;21.33;;
11431;SDS011;5772;50.940;6.782;2023-08-30T02:52:21;23.93;;;22.53;;
11431;SDS011;5772;50.940;6.782;2023-08-30T02:54:46;24.00;;;22.60;;
11431;SDS011;5772;50.940;6.782;2023-08-30T02:57:11;24.40;;;23.07;;
11431;SDS011;5772;50.940;6.782;2023-08-30T02:59:36;22.13;;;20.83;;
11431;SDS011;5772;50.940;6.782;2023-08-30T03:02:02;23.50;;;22.10;;
11431;SDS011;5772;50.940;6.782;2023-08-30T03:04:27;23.20;;;21.90;;
11431;SDS011;5772;50.940;6.782;2023-08-30T03:06:52;25.27;;;23.30;;
11431;SDS011;5772;50.940;6.782;2023-08-30T03:09:19;23.67;;;22.17;;
11431;SDS011;5772;50.940;6.782;2023-08-30T03:11:44;24.03;;;22.47;;
11431;SDS011;5772;50.940;6.782;2023-08-30T03:14:09;23.93;;;22.40;;
11431;SDS011;5772;50.940;6.782;2023-08-30T03:16:34;24.37;;;23.07;;
11431;SDS011;5772;50.940;6.782;2023-08-30T03:18:59;25.30;;;23.90;;
11431;SDS011;5772;50.940;6.782;2023-08-30T03:21:25;23.00;;;21.67;;
11431;SDS011;5772;50.940;6.782;2023-08-30T03:23:50;25.43;;;24.03;;
11431;SDS011;5772;50.940;6.782;2023-08-30T03:26:16;25.03;;;23.60;;
11431;SDS011;5772;50.940;6.782;2023-08-30T03:28:42;24.50;;;23.20;;
11431;SDS011;5772;50.940;6.782;2023-08-30T03:31:11;26.77;;;24.87;;
11431;SDS011;5772;50.940;6.782;2023-08-30T03:33:36;25.60;;;24.07;;
11431;SDS011;5772;50.940;6.782;2023-08-30T03:36:02;26.47;;;24.87;;
11431;SDS011;5772;50.940;6.782;2023-08-30T03:38:27;26.23;;;24.63;;
11431;SDS011;5772;50.940;6.782;2023-08-30T03:40:53;27.33;;;25.73;;
11431;SDS011;5772;50.940;6.782;2023-08-30T03:43:19;23.03;;;21.73;;
11431;SDS011;5772;50.940;6.782;2023-08-30T03:45:44;26.30;;;24.90;;
11431;SDS011;5772;50.940;6.782;2023-08-30T03:48:10;23.37;;;22.03;;
11431;SDS011;5772;50.940;6.782;2023-08-30T03:50:36;24.97;;;23.23;;
11431;SDS011;5772;50.940;6.782;2023-08-30T03:53:01;24.73;;;23.33;;
11431;SDS011;5772;50.940;6.782;2023-08-30T03:55:26;23.53;;;22.13;;
11431;SDS011;5772;50.940;6.782;2023-08-30T03:57:51;23.93;;;22.37;;
11431;SDS011;5772;50.940;6.782;2023-08-30T04:00:18;24.73;;;22.87;;
11431;SDS011;5772;50.940;6.782;2023-08-30T04:02:43;23.90;;;22.53;;
11431;SDS011;5772;50.940;6.782;2023-08-30T04:05:08;25.17;;;23.77;;
11431;SDS011;5772;50.940;6.782;2023-08-30T04:07:35;24.87;;;23.57;;
11431;SDS011;5772;50.940;6.782;2023-08-30T04:10:00;24.73;;;22.93;;
11431;SDS011;5772;50.940;6.782;2023-08-30T04:12:25;24.13;;;22.57;;
11431;SDS011;5772;50.940;6.782;2023-08-30T04:14:50;25.07;;;23.60;;
11431;SDS011;5772;50.940;6.782;2023-08-30T04:17:17;24.73;;;23.40;;
11431;SDS011;5772;50.940;6.782;2023-08-30T04:19:42;24.93;;;23.43;;
11431;SDS011;5772;50.940;6.782;2023-08-30T04:22:07;24.47;;;23.17;;
11431;SDS011;5772;50.940;6.782;2023-08-30T04:24:32;24.93;;;23.43;;
11431;SDS011;5772;50.940;6.782;2023-08-30T04:26:58;25.93;;;24.33;;
11431;SDS011;5772;50.940;6.782;2023-08-30T04:29:23;24.07;;;22.77;;
11431;SDS011;5772;50.940;6.782;2023-08-30T04:31:48;25.63;;;24.03;;
11431;SDS011;5772;50.940;6.782;2023-08-30T04:34:14;23.93;;;22.40;;
11431;SDS011;5772;50.940;6.782;2023-08-30T04:36:40;23.47;;;22.17;;
11431;SDS011;5772;50.940;6.782;2023-08-30T04:39:05;23.80;;;22.23;;
11431;SDS011;5772;50.940;6.782;2023-08-30T04:41:30;23.80;;;22.37;;
11431;SDS011;5772;50.940;6.782;2023-08-30T04:43:55;23.13;;;21.83;;
11431;SDS011;5772;50.940;6.782;2023-08-30T04:46:20;25.33;;;23.73;;
11431;SDS011;5772;50.940;6.782;2023-08-30T04:48:46;24.87;;;23.43;;
11431;SDS011;5772;50.940;6.782;2023-08-30T04:51:12;22.20;;;20.87;;
11431;SDS011;5772;50.940;6.782;2023-08-30T04:53:37;22.83;;;21.40;;
11431;SDS011;5772;50.940;6.782;2023-08-30T04:56:09;23.03;;;21.07;;
11431;SDS011;5772;50.940;6.782;2023-08-30T04:58:34;24.53;;;23.13;;
11431;SDS011;5772;50.940;6.782;2023-08-30T05:01:00;23.90;;;22.60;;
11431;SDS011;5772;50.940;6.782;2023-08-30T05:03:25;22.83;;;21.53;;
11431;SDS011;5772;50.940;6.782;2023-08-30T05:05:50;23.80;;;22.40;;
11431;SDS011;5772;50.940;6.782;2023-08-30T05:08:16;24.37;;;22.90;;
11431;SDS011;5772;50.940;6.782;2023-08-30T05:10:42;23.27;;;21.97;;
11431;SDS011;5772;50.940;6.782;2023-08-30T05:13:07;25.27;;;23.47;;
11431;SDS011;5772;50.940;6.782;2023-08-30T05:15:32;23.37;;;22.17;;
11431;SDS011;5772;50.940;6.782;2023-08-30T05:17:57;27.27;;;25.47;;
11431;SDS011;5772;50.940;6.782;2023-08-30T05:20:22;24.60;;;23.23;;
11431;SDS011;5772;50.940;6.782;2023-08-30T05:22:48;25.30;;;23.60;;
11431;SDS011;5772;50.940;6.782;2023-08-30T05:25:14;24.00;;;22.50;;
11431;SDS011;5772;50.940;6.782;2023-08-30T05:27:39;23.27;;;21.70;;
11431;SDS011;5772;50.940;6.782;2023-08-30T05:30:05;24.37;;;23.07;;
11431;SDS011;5772;50.940;6.782;2023-08-30T05:32:31;24.37;;;23.07;;
11431;SDS011;5772;50.940;6.782;2023-08-30T05:34:56;25.73;;;24.10;;
11431;SDS011;5772;50.940;6.782;2023-08-30T05:37:22;24.83;;;23.43;;
11431;SDS011;5772;50.940;6.782;2023-08-30T05:39:47;26.20;;;24.80;;
11431;SDS011;5772;50.940;6.782;2023-08-30T05:42:14;24.23;;;22.77;;
11431;SDS011;5772;50.940;6.782;2023-08-30T05:44:39;22.97;;;21.47;;
11431;SDS011;5772;50.940;6.782;2023-08-30T05:47:04;24.37;;;22.80;;
11431;SDS011;5772;50.940;6.782;2023-08-30T05:49:29;22.70;;;21.47;;
11431;SDS011;5772;50.940;6.782;2023-08-30T05:51:54;24.40;;;23.13;;
11431;SDS011;5772;50.940;6.782;2023-08-30T05:54:20;24.03;;;22.73;;
11431;SDS011;5772;50.940;6.782;2023-08-30T05:56:45;23.87;;;22.43;;
11431;SDS011;5772;50.940;6.782;2023-08-30T05:59:11;21.17;;;20.07;;
11431;SDS011;5772;50.940;6.782;2023-08-30T06:01:37;24.50;;;22.80;;
11431;SDS011;5772;50.940;6.782;2023-08-30T06:04:02;22.53;;;20.93;;
11431;SDS011;5772;50.940;6.782;2023-08-30T06:06:27;22.83;;;21.57;;
11431;SDS011;5772;50.940;6.782;2023-08-30T06:08:52;23.90;;;22.40;;
11431;SDS011;5772;50.940;6.782;2023-08-30T06:11:18;22.23;;;20.97;;
11431;SDS011;5772;50.940;6.782;2023-08-30T06:13:43;21.67;;;20.27;;
11431;SDS011;5772;50.940;6.782;2023-08-30T06:16:10;21.77;;;20.60;;
11431;SDS011;5772;50.940;6.782;2023-08-30T06:18:35;24.13;;;22.43;;
11431;SDS011;5772;50.940;6.782;2023-08-30T06:21:00;21.40;;;20.20;;
11431;SDS011;5772;50.940;6.782;2023-08-30T06:23:25;25.07;;;23.60;;
11431;SDS011;5772;50.940;6.782;2023-08-30T06:25:53;27.17;;;25.77;;
11431;SDS011;5772;50.940;6.782;2023-08-30T06:28:19;26.70;;;25.20;;
11431;SDS011;5772;50.940;6.782;2023-08-30T06:30:44;26.23;;;25.03;;
11431;SDS011;5772;50.940;6.782;2023-08-30T06:33:10;26.07;;;24.57;;
11431;SDS011;5772;50.940;6.782;2023-08-30T06:35:36;24.97;;;23.67;;
11431;SDS011;5772;50.940;6.782;2023-08-30T06:38:01;26.27;;;24.97;;
11431;SDS011;5772;50.940;6.782;2023-08-30T06:40:26;26.67;;;25.27;;
11431;SDS011;5772;50.940;6.782;2023-08-30T06:42:51;27.23;;;25.57;;
11431;SDS011;5772;50.940;6.782;2023-08-30T06:45:17;27.47;;;26.07;;
11431;SDS011;5772;50.940;6.782;2023-08-30T06:47:42;25.73;;;24.53;;
11431;SDS011;5772;50.940;6.782;2023-08-30T06:50:09;26.73;;;25.43;;
11431;SDS011;5772;50.940;6.782;2023-08-30T06:52:34;25.47;;;23.97;;
11431;SDS011;5772;50.940;6.782;2023-08-30T06:54:59;20.40;;;18.90;;
11431;SDS011;5772;50.940;6.782;2023-08-30T06:57:24;20.27;;;19.07;;
11431;SDS011;5772;50.940;6.782;2023-08-30T06:59:50;20.27;;;19.17;;
11431;SDS011;5772;50.940;6.782;2023-08-30T07:02:15;20.77;;;19.37;;
11431;SDS011;5772;50.940;6.782;2023-08-30T07:04:40;20.33;;;19.17;;
11431;SDS011;5772;50.940;6.782;2023-08-30T07:07:07;20.13;;;19.00;;
11431;SDS011;5772;50.940;6.782;2023-08-30T07:09:32;17.97;;;16.97;;
11431;SDS011;5772;50.940;6.782;2023-08-30T07:11:57;18.30;;;17.30;;
11431;SDS011;5772;50.940;6.782;2023-08-30T07:14:23;19.33;;;18.30;;
11431;SDS011;5772;50.940;6.782;2023-08-30T07:16:48;18.17;;;17.17;;
11431;SDS011;5772;50.940;6.782;2023-08-30T07:19:14;18.47;;;17.40;;
11431;SDS011;5772;50.940;6.782;2023-08-30T07:21:39;18.80;;;17.77;;
11431;SDS011;5772;50.940;6.782;2023-08-30T07:24:06;17.83;;;16.80;;
11431;SDS011;5772;50.940;6.782;2023-08-30T07:26:32;18.43;;;17.13;;
11431;SDS011;5772;50.940;6.782;2023-08-30T07:28:58;17.60;;;16.70;;
11431;SDS011;5772;50.940;6.782;2023-08-30T07:31:23;19.10;;;17.97;;
11431;SDS011;5772;50.940;6.782;2023-08-30T07:33:48;20.20;;;19.10;;
11431;SDS011;5772;50.940;6.782;2023-08-30T07:36:14;19.67;;;18.70;;
11431;SDS011;5772;50.940;6.782;2023-08-30T07:38:39;19.10;;;17.97;;
11431;SDS011;5772;50.940;6.782;2023-08-30T07:41:06;18.80;;;17.80;;
11431;SDS011;5772;50.940;6.782;2023-08-30T07:43:31;19.47;;;18.40;;
11431;SDS011;5772;50.940;6.782;2023-08-30T07:45:57;17.17;;;16.17;;
11431;SDS011;5772;50.940;6.782;2023-08-30T07:48:23;17.45;;;16.55;;
11431;SDS011;5772;50.940;6.782;2023-08-30T07:50:48;16.42;;;15.52;;
11431;SDS011;5772;50.940;6.782;2023-08-30T07:53:13;16.42;;;15.55;;
11431;SDS011;5772;50.940;6.782;2023-08-30T07:55:39;15.95;;;15.13;;
11431;SDS011;5772;50.940;6.782;2023-08-30T07:58:05;16.00;;;15.00;;
11431;SDS011;5772;50.940;6.782;2023-08-30T08:00:31;17.63;;;16.38;;
11431;SDS011;5772;50.940;6.782;2023-08-30T08:02:56;20.57;;;19.57;;
11431;SDS011;5772;50.940;6.782;2023-08-30T08:05:21;19.40;;;18.50;;
11431;SDS011;5772;50.940;6.782;2023-08-30T08:07:51;19.47;;;18.43;;
11431;SDS011;5772;50.940;6.782;2023-08-30T08:10:17;18.83;;;17.93;;
11431;SDS011;5772;50.940;6.782;2023-08-30T08:12:43;19.10;;;18.10;;
11431;SDS011;5772;50.940;6.782;2023-08-30T08:15:10;18.33;;;17.40;;
11431;SDS011;5772;50.940;6.782;2023-08-30T08:17:35;19.67;;;18.77;;
11431;SDS011;5772;50.940;6.782;2023-08-30T08:20:01;18.90;;;18.02;;
11431;SDS011;5772;50.940;6.782;2023-08-30T08:22:26;18.63;;;17.63;;
11431;SDS011;5772;50.940;6.782;2023-08-30T08:24:51;16.97;;;16.17;;
11431;SDS011;5772;50.940;6.782;2023-08-30T08:27:17;15.57;;;14.77;;
11431;SDS011;5772;50.940;6.782;2023-08-30T08:29:42;19.08;;;18.08;;
11431;SDS011;5772;50.940;6.782;2023-08-30T08:32:09;14.98;;;14.18;;
11431;SDS011;5772;50.940;6.782;2023-08-30T08:34:34;15.55;;;14.75;;
11431;SDS011;5772;50.940;6.782;2023-08-30T08:36:59;14.95;;;14.35;;
11431;SDS011;5772;50.940;6.782;2023-08-30T08:39:25;14.57;;;13.77;;
11431;SDS011;5772;50.940;6.782;2023-08-30T08:41:50;15.07;;;14.38;;
11431;SDS011;5772;50.940;6.782;2023-08-30T08:44:16;15.38;;;14.68;;
11431;SDS011;5772;50.940;6.782;2023-08-30T08:46:41;15.63;;;14.80;;
11431;SDS011;5772;50.940;6.782;2023-08-30T08:49:09;14.07;;;13.48;;
11431;SDS011;5772;50.940;6.782;2023-08-30T08:51:36;13.73;;;13.13;;
11431;SDS011;5772;50.940;6.782;2023-08-30T08:54:03;13.73;;;13.00;;
11431;SDS011;5772;50.940;6.782;2023-08-30T08:56:29;15.10;;;14.40;;
11431;SDS011;5772;50.940;6.782;2023-08-30T08:58:55;14.02;;;13.32;;
11431;SDS011;5772;50.940;6.782;2023-08-30T09:01:20;13.60;;;12.90;;
11431;SDS011;5772;50.940;6.782;2023-08-30T09:03:45;13.82;;;13.23;;
11431;SDS011;5772;50.940;6.782;2023-08-30T09:06:13;14.20;;;13.50;;
11431;SDS011;5772;50.940;6.782;2023-08-30T09:08:38;14.27;;;13.68;;
11431;SDS011;5772;50.940;6.782;2023-08-30T09:11:03;15.57;;;14.68;;
11431;SDS011;5772;50.940;6.782;2023-08-30T09:13:29;16.67;;;15.98;;
11431;SDS011;5772;50.940;6.782;2023-08-30T09:15:54;16.38;;;15.57;;
11431;SDS011;5772;50.940;6.782;2023-08-30T09:18:20;16.98;;;16.17;;
11431;SDS011;5772;50.940;6.782;2023-08-30T09:20:45;16.92;;;16.17;;
11431;SDS011;5772;50.940;6.782;2023-08-30T09:23:18;17.48;;;16.58;;
11431;SDS011;5772;50.940;6.782;2023-08-30T09:25:44;17.73;;;16.60;;
11431;SDS011;5772;50.940;6.782;2023-08-30T09:28:09;16.88;;;16.02;;
11431;SDS011;5772;50.940;6.782;2023-08-30T09:30:34;16.10;;;15.15;;
11431;SDS011;5772;50.940;6.782;2023-08-30T09:33:00;15.02;;;14.32;;
11431;SDS011;5772;50.940;6.782;2023-08-30T09:35:26;15.45;;;14.65;;
11431;SDS011;5772;50.940;6.782;2023-08-30T09:37:54;14.63;;;13.93;;
11431;SDS011;5772;50.940;6.782;2023-08-30T09:40:21;15.98;;;14.93;;
11431;SDS011;5772;50.940;6.782;2023-08-30T09:42:46;14.50;;;13.80;;
11431;SDS011;5772;50.940;6.782;2023-08-30T09:45:18;15.10;;;14.35;;
11431;SDS011;5772;50.940;6.782;2023-08-30T09:47:46;15.18;;;14.48;;
11431;SDS011;5772;50.940;6.782;2023-08-30T09:50:12;15.48;;;14.77;;
11431;SDS011;5772;50.940;6.782;2023-08-30T09:52:37;17.13;;;16.15;;
11431;SDS011;5772;50.940;6.782;2023-08-30T09:55:04;17.23;;;16.15;;
11431;SDS011;5772;50.940;6.782;2023-08-30T09:57:33;17.23;;;16.33;;
11431;SDS011;5772;50.940;6.782;2023-08-30T09:59:59;15.98;;;15.18;;
11431;SDS011;5772;50.940;6.782;2023-08-30T10:02:25;15.35;;;14.65;;
11431;SDS011;5772;50.940;6.782;2023-08-30T10:04:51;15.25;;;14.55;;
11431;SDS011;5772;50.940;6.782;2023-08-30T10:09:57;17.42;;;16.20;;
11431;SDS011;5772;50.940;6.782;2023-08-30T10:12:26;17.20;;;16.23;;
11431;SDS011;5772;50.940;6.782;2023-08-30T10:14:54;16.65;;;15.77;;
11431;SDS011;5772;50.940;6.782;2023-08-30T10:17:19;16.98;;;16.17;;
11431;SDS011;5772;50.940;6.782;2023-08-30T10:19:46;17.70;;;16.67;;
11431;SDS011;5772;50.940;6.782;2023-08-30T10:22:11;16.48;;;15.60;;
11431;SDS011;5772;50.940;6.782;2023-08-30T10:24:37;17.03;;;16.13;;
11431;SDS011;5772;50.940;6.782;2023-08-30T10:27:05;17.03;;;16.27;;
11431;SDS011;5772;50.940;6.782;2023-08-30T10:29:32;18.63;;;17.63;;
11431;SDS011;5772;50.940;6.782;2023-08-30T10:32:02;18.20;;;17.07;;
11431;SDS011;5772;50.940;6.782;2023-08-30T10:34:31;16.50;;;15.70;;
11431;SDS011;5772;50.940;6.782;2023-08-30T10:36:58;17.23;;;16.43;;
11431;SDS011;5772;50.940;6.782;2023-08-30T10:39:27;17.90;;;17.07;;
11431;SDS011;5772;50.940;6.782;2023-08-30T10:41:58;17.43;;;16.63;;
11431;SDS011;5772;50.940;6.782;2023-08-30T10:44:23;18.77;;;17.97;;
11431;SDS011;5772;50.940;6.782;2023-08-30T10:46:51;19.00;;;17.90;;
11431;SDS011;5772;50.940;6.782;2023-08-30T10:49:18;19.07;;;18.07;;
11431;SDS011;5772;50.940;6.782;2023-08-30T10:51:44;17.37;;;16.57;;
11431;SDS011;5772;50.940;6.782;2023-08-30T10:54:10;17.37;;;16.50;;
11431;SDS011;5772;50.940;6.782;2023-08-30T10:56:44;17.80;;;17.00;;
11431;SDS011;5772;50.940;6.782;2023-08-30T10:59:15;20.67;;;19.77;;
11431;SDS011;5772;50.940;6.782;2023-08-30T11:01:41;18.63;;;17.77;;
11431;SDS011;5772;50.940;6.782;2023-08-30T11:04:08;17.33;;;16.53;;
11431;SDS011;5772;50.940;6.782;2023-08-30T11:06:36;18.73;;;17.90;;
11431;SDS011;5772;50.940;6.782;2023-08-30T11:09:03;24.07;;;23.07;;
11431;SDS011;5772;50.940;6.782;2023-08-30T11:11:28;23.50;;;22.40;;
11431;SDS011;5772;50.940;6.782;2023-08-30T11:13:54;29.67;;;28.37;;
11431;SDS011;5772;50.940;6.782;2023-08-30T11:16:21;27.77;;;26.57;;
11431;SDS011;5772;50.940;6.782;2023-08-30T11:18:46;24.57;;;23.47;;
11431;SDS011;5772;50.940;6.782;2023-08-30T11:21:14;23.27;;;22.27;;
11431;SDS011;5772;50.940;6.782;2023-08-30T11:23:40;22.77;;;21.67;;
11431;SDS011;5772;50.940;6.782;2023-08-30T11:26:07;24.03;;;23.00;;
11431;SDS011;5772;50.940;6.782;2023-08-30T11:28:32;24.30;;;23.27;;
11431;SDS011;5772;50.940;6.782;2023-08-30T11:30:57;24.37;;;23.17;;
11431;SDS011;5772;50.940;6.782;2023-08-30T11:33:23;26.77;;;25.37;;
11431;SDS011;5772;50.940;6.782;2023-08-30T11:35:49;28.63;;;27.33;;
11431;SDS011;5772;50.940;6.782;2023-08-30T11:38:15;25.63;;;24.43;;
11431;SDS011;5772;50.940;6.782;2023-08-30T11:40:42;26.90;;;25.70;;
11431;SDS011;5772;50.940;6.782;2023-08-30T11:43:07;33.60;;;32.00;;
11431;SDS011;5772;50.940;6.782;2023-08-30T11:45:32;27.33;;;26.13;;
11431;SDS011;5772;50.940;6.782;2023-08-30T11:47:58;25.80;;;24.50;;
11431;SDS011;5772;50.940;6.782;2023-08-30T11:50:23;27.87;;;26.57;;
11431;SDS011;5772;50.940;6.782;2023-08-30T11:52:49;29.27;;;27.97;;
11431;SDS011;5772;50.940;6.782;2023-08-30T11:55:14;26.90;;;25.70;;
11431;SDS011;5772;50.940;6.782;2023-08-30T11:57:44;26.43;;;25.23;;
11431;SDS011;5772;50.940;6.782;2023-08-30T12:00:10;27.63;;;26.43;;
11431;SDS011;5772;50.940;6.782;2023-08-30T12:02:37;26.80;;;25.50;;
11431;SDS011;5772;50.940;6.782;2023-08-30T12:05:03;26.50;;;25.30;;
11431;SDS011;5772;50.940;6.782;2023-08-30T12:07:29;29.30;;;28.00;;
11431;SDS011;5772;50.940;6.782;2023-08-30T12:10:03;28.80;;;27.57;;
11431;SDS011;5772;50.940;6.782;2023-08-30T12:12:29;28.40;;;27.20;;
11431;SDS011;5772;50.940;6.782;2023-08-30T12:14:55;32.20;;;30.80;;
11431;SDS011;5772;50.940;6.782;2023-08-30T12:17:21;33.53;;;32.00;;
11431;SDS011;5772;50.940;6.782;2023-08-30T12:19:46;31.97;;;30.43;;
11431;SDS011;5772;50.940;6.782;2023-08-30T12:22:20;28.47;;;27.17;;
11431;SDS011;5772;50.940;6.782;2023-08-30T12:24:46;29.80;;;28.60;;
11431;SDS011;5772;50.940;6.782;2023-08-30T12:27:11;35.23;;;33.73;;
11431;SDS011;5772;50.940;6.782;2023-08-30T12:29:37;36.37;;;34.77;;
11431;SDS011;5772;50.940;6.782;2023-08-30T12:32:04;29.93;;;28.57;;
11431;SDS011;5772;50.940;6.782;2023-08-30T12:34:30;30.80;;;29.50;;
11431;SDS011;5772;50.940;6.782;2023-08-30T12:36:55;34.03;;;32.57;;
11431;SDS011;5772;50.940;6.782;2023-08-30T12:39:21;29.63;;;28.27;;
11431;SDS011;5772;50.940;6.782;2023-08-30T12:41:46;30.57;;;29.27;;
11431;SDS011;5772;50.940;6.782;2023-08-30T12:44:12;35.33;;;33.83;;
11431;SDS011;5772;50.940;6.782;2023-08-30T12:46:37;118.03;;;113.37;;
11431;SDS011;5772;50.940;6.782;2023-08-30T12:49:04;114.30;;;109.90;;
11431;SDS011;5772;50.940;6.782;2023-08-30T12:51:29;115.23;;;110.73;;
11431;SDS011;5772;50.940;6.782;2023-08-30T12:53:55;48.53;;;46.53;;
11431;SDS011;5772;50.940;6.782;2023-08-30T12:56:20;40.03;;;38.10;;
11431;SDS011;5772;50.940;6.782;2023-08-30T12:58:46;46.07;;;44.13;;
11431;SDS011;5772;50.940;6.782;2023-08-30T13:01:11;35.27;;;33.67;;
11431;SDS011;5772;50.940;6.782;2023-08-30T13:03:36;45.90;;;44.00;;
11431;SDS011;5772;50.940;6.782;2023-08-30T13:06:03;45.17;;;43.23;;
11431;SDS011;5772;50.940;6.782;2023-08-30T13:08:28;47.10;;;45.07;;
11431;SDS011;5772;50.940;6.782;2023-08-30T13:10:54;46.43;;;44.43;;
11431;SDS011;5772;50.940;6.782;2023-08-30T13:13:19;44.70;;;42.70;;
11431;SDS011;5772;50.940;6.782;2023-08-30T13:15:45;46.07;;;44.13;;
11431;SDS011;5772;50.940;6.782;2023-08-30T13:18:10;82.17;;;78.77;;
11431;SDS011;5772;50.940;6.782;2023-08-30T13:20:37;59.93;;;57.37;;
11431;SDS011;5772;50.940;6.782;2023-08-30T13:23:04;44.13;;;42.27;;
11431;SDS011;5772;50.940;6.782;2023-08-30T13:25:30;45.83;;;43.93;;
11431;SDS011;5772;50.940;6.782;2023-08-30T13:27:55;41.80;;;40.10;;
11431;SDS011;5772;50.940;6.782;2023-08-30T13:30:20;42.37;;;40.67;;
11431;SDS011;5772;50.940;6.782;2023-08-30T13:32:46;60.23;;;57.73;;
11431;SDS011;5772;50.940;6.782;2023-08-30T13:35:11;58.97;;;56.50;;
11431;SDS011;5772;50.940;6.782;2023-08-30T13:37:36;42.27;;;40.53;;
11431;SDS011;5772;50.940;6.782;2023-08-30T13:40:06;51.67;;;49.50;;
11431;SDS011;5772;50.940;6.782;2023-08-30T13:42:32;47.00;;;45.03;;
11431;SDS011;5772;50.940;6.782;2023-08-30T13:44:58;49.90;;;47.80;;
11431;SDS011;5772;50.940;6.782;2023-08-30T13:47:24;51.17;;;48.97;;
11431;SDS011;5772;50.940;6.782;2023-08-30T13:49:49;64.90;;;62.13;;
11431;SDS011;5772;50.940;6.782;2023-08-30T13:52:14;81.27;;;78.00;;
11431;SDS011;5772;50.940;6.782;2023-08-30T13:54:40;45.00;;;43.17;;
11431;SDS011;5772;50.940;6.782;2023-08-30T13:57:06;40.10;;;38.47;;
11431;SDS011;5772;50.940;6.782;2023-08-30T13:59:32;49.53;;;47.53;;
11431;SDS011;5772;50.940;6.782;2023-08-30T14:01:57;35.83;;;34.30;;
11431;SDS011;5772;50.940;6.782;2023-08-30T14:04:23;35.13;;;33.63;;
11431;SDS011;5772;50.940;6.782;2023-08-30T14:06:48;40.63;;;38.90;;
11431;SDS011;5772;50.940;6.782;2023-08-30T14:09:14;38.43;;;36.80;;
11431;SDS011;5772;50.940;6.782;2023-08-30T14:11:39;39.23;;;37.40;;
11431;SDS011;5772;50.940;6.782;2023-08-30T14:14:06;36.43;;;34.93;;
11431;SDS011;5772;50.940;6.782;2023-08-30T14:16:31;44.30;;;42.43;;
11431;SDS011;5772;50.940;6.782;2023-08-30T14:18:57;35.47;;;34.07;;
11431;SDS011;5772;50.940;6.782;2023-08-30T14:21:22;38.90;;;37.13;;
11431;SDS011;5772;50.940;6.782;2023-08-30T14:23:47;39.47;;;37.77;;
11431;SDS011;5772;50.940;6.782;2023-08-30T14:26:13;40.13;;;38.43;;
11431;SDS011;5772;50.940;6.782;2023-08-30T14:28:38;45.77;;;43.87;;